METAR Formatted Surface Weather Observation
Issued by NWS

Home | Current Version | Previous Version | Text Only | Print | Product List | Glossary On
Versions: 1 2 3
979
SAUS44 KBMX 110956
MTRHEY
METAR KHEY 110953Z AUTO 21003KT 10SM CLR M01/M05 A3021 RMK AO2
SLP224 T10111050 FZRANO $



USA.gov is the U.S. government's official web portal to all federal, state and local government web resources and services.